sensor_id;sensor_type;location;lat;lon;timestamp;temperature;humidity
11925;DHT22;6022;48.768;18.608;2023-06-04T00:00:25;14.60;99.90
11925;DHT22;6022;48.768;18.608;2023-06-04T00:02:52;14.40;99.90
11925;DHT22;6022;48.768;18.608;2023-06-04T00:05:20;14.50;99.90
11925;DHT22;6022;48.768;18.608;2023-06-04T00:07:49;14.20;99.90
11925;DHT22;6022;48.768;18.608;2023-06-04T00:10:16;14.40;99.90
11925;DHT22;6022;48.768;18.608;2023-06-04T00:12:44;14.50;99.90
11925;DHT22;6022;48.768;18.608;2023-06-04T00:15:13;14.30;99.90
11925;DHT22;6022;48.768;18.608;2023-06-04T00:17:42;14.30;99.90
11925;DHT22;6022;48.768;18.608;2023-06-04T00:20:10;14.50;99.90
11925;DHT22;6022;48.768;18.608;2023-06-04T00:22:38;14.20;99.90
11925;DHT22;6022;48.768;18.608;2023-06-04T00:25:09;14.20;99.90
11925;DHT22;6022;48.768;18.608;2023-06-04T00:27:37;14.10;99.90
11925;DHT22;6022;48.768;18.608;2023-06-04T00:30:04;13.80;99.90
11925;DHT22;6022;48.768;18.608;2023-06-04T00:32:34;13.70;99.90
11925;DHT22;6022;48.768;18.608;2023-06-04T00:35:01;14.00;99.90
11925;DHT22;6022;48.768;18.608;2023-06-04T00:37:29;14.00;99.90
11925;DHT22;6022;48.768;18.608;2023-06-04T00:39:56;14.20;99.90
11925;DHT22;6022;48.768;18.608;2023-06-04T00:42:23;14.00;99.90
11925;DHT22;6022;48.768;18.608;2023-06-04T00:44:52;14.10;99.90
11925;DHT22;6022;48.768;18.608;2023-06-04T00:47:20;14.10;99.90
11925;DHT22;6022;48.768;18.608;2023-06-04T00:49:48;13.70;99.90
11925;DHT22;6022;48.768;18.608;2023-06-04T00:52:16;13.90;99.90
11925;DHT22;6022;48.768;18.608;2023-06-04T00:54:43;13.60;99.90
11925;DHT22;6022;48.768;18.608;2023-06-04T00:57:10;13.90;99.90
11925;DHT22;6022;48.768;18.608;2023-06-04T00:59:38;14.00;99.90
11925;DHT22;6022;48.768;18.608;2023-06-04T01:02:14;13.90;99.90
11925;DHT22;6022;48.768;18.608;2023-06-04T01:05:14;13.90;99.90
11925;DHT22;6022;48.768;18.608;2023-06-04T01:07:47;13.70;99.90
11925;DHT22;6022;48.768;18.608;2023-06-04T01:10:15;13.60;99.90
11925;DHT22;6022;48.768;18.608;2023-06-04T01:12:43;13.50;99.90
11925;DHT22;6022;48.768;18.608;2023-06-04T01:15:11;13.40;99.90
11925;DHT22;6022;48.768;18.608;2023-06-04T01:17:40;13.50;99.90
11925;DHT22;6022;48.768;18.608;2023-06-04T01:22:43;13.30;99.90
11925;DHT22;6022;48.768;18.608;2023-06-04T01:25:20;13.30;99.90
11925;DHT22;6022;48.768;18.608;2023-06-04T01:27:54;13.30;99.90
11925;DHT22;6022;48.768;18.608;2023-06-04T01:30:35;13.10;99.90
11925;DHT22;6022;48.768;18.608;2023-06-04T01:33:10;13.10;99.90
11925;DHT22;6022;48.768;18.608;2023-06-04T01:35:40;13.10;99.90
11925;DHT22;6022;48.768;18.608;2023-06-04T01:38:07;13.20;99.90
11925;DHT22;6022;48.768;18.608;2023-06-04T01:40:36;13.20;99.90
11925;DHT22;6022;48.768;18.608;2023-06-04T01:43:03;13.10;99.90
11925;DHT22;6022;48.768;18.608;2023-06-04T01:45:31;12.90;99.90
11925;DHT22;6022;48.768;18.608;2023-06-04T01:48:04;12.90;99.90
11925;DHT22;6022;48.768;18.608;2023-06-04T01:50:32;13.00;99.90
11925;DHT22;6022;48.768;18.608;2023-06-04T01:53:00;12.90;99.90
11925;DHT22;6022;48.768;18.608;2023-06-04T01:55:42;12.70;99.90
11925;DHT22;6022;48.768;18.608;2023-06-04T01:58:10;12.50;99.90
11925;DHT22;6022;48.768;18.608;2023-06-04T02:00:37;12.50;99.90
11925;DHT22;6022;48.768;18.608;2023-06-04T02:03:04;12.50;99.90
11925;DHT22;6022;48.768;18.608;2023-06-04T02:05:32;12.40;99.90
11925;DHT22;6022;48.768;18.608;2023-06-04T02:07:59;12.40;99.90
11925;DHT22;6022;48.768;18.608;2023-06-04T02:10:28;12.50;99.90
11925;DHT22;6022;48.768;18.608;2023-06-04T02:13:02;12.60;99.90
11925;DHT22;6022;48.768;18.608;2023-06-04T02:15:31;12.20;99.90
11925;DHT22;6022;48.768;18.608;2023-06-04T02:18:19;12.20;99.90
11925;DHT22;6022;48.768;18.608;2023-06-04T02:20:50;12.20;99.90
11925;DHT22;6022;48.768;18.608;2023-06-04T02:23:19;12.10;99.90
11925;DHT22;6022;48.768;18.608;2023-06-04T02:25:48;12.10;99.90
11925;DHT22;6022;48.768;18.608;2023-06-04T02:28:16;12.10;99.90
11925;DHT22;6022;48.768;18.608;2023-06-04T02:30:45;11.90;99.90
11925;DHT22;6022;48.768;18.608;2023-06-04T02:33:15;12.00;99.90
11925;DHT22;6022;48.768;18.608;2023-06-04T02:35:43;11.80;99.90
11925;DHT22;6022;48.768;18.608;2023-06-04T02:38:10;11.70;99.90
11925;DHT22;6022;48.768;18.608;2023-06-04T02:40:38;11.70;99.90
11925;DHT22;6022;48.768;18.608;2023-06-04T02:43:06;11.70;99.90
11925;DHT22;6022;48.768;18.608;2023-06-04T02:45:33;11.50;99.90
11925;DHT22;6022;48.768;18.608;2023-06-04T02:48:01;11.20;99.90
11925;DHT22;6022;48.768;18.608;2023-06-04T02:50:28;11.50;99.90
11925;DHT22;6022;48.768;18.608;2023-06-04T02:52:55;11.50;99.90
11925;DHT22;6022;48.768;18.608;2023-06-04T02:55:22;11.60;99.90
11925;DHT22;6022;48.768;18.608;2023-06-04T02:57:49;11.60;99.90
11925;DHT22;6022;48.768;18.608;2023-06-04T03:00:19;11.40;99.90
11925;DHT22;6022;48.768;18.608;2023-06-04T03:02:47;11.40;99.90
11925;DHT22;6022;48.768;18.608;2023-06-04T03:05:16;11.50;99.90
11925;DHT22;6022;48.768;18.608;2023-06-04T03:07:46;11.50;99.90
11925;DHT22;6022;48.768;18.608;2023-06-04T03:10:15;11.60;99.90
11925;DHT22;6022;48.768;18.608;2023-06-04T03:12:43;11.70;99.90
11925;DHT22;6022;48.768;18.608;2023-06-04T03:15:11;11.50;99.90
11925;DHT22;6022;48.768;18.608;2023-06-04T03:17:38;11.50;99.90
11925;DHT22;6022;48.768;18.608;2023-06-04T03:20:08;11.70;99.90
11925;DHT22;6022;48.768;18.608;2023-06-04T03:22:36;11.50;99.90
11925;DHT22;6022;48.768;18.608;2023-06-04T03:25:04;11.80;99.90
11925;DHT22;6022;48.768;18.608;2023-06-04T03:27:32;11.80;99.90
11925;DHT22;6022;48.768;18.608;2023-06-04T03:30:00;11.80;99.90
11925;DHT22;6022;48.768;18.608;2023-06-04T03:32:27;11.90;99.90
11925;DHT22;6022;48.768;18.608;2023-06-04T03:34:54;12.00;99.90
11925;DHT22;6022;48.768;18.608;2023-06-04T03:37:22;12.00;99.90
11925;DHT22;6022;48.768;18.608;2023-06-04T03:39:49;12.30;99.90
11925;DHT22;6022;48.768;18.608;2023-06-04T03:42:19;12.70;99.90
11925;DHT22;6022;48.768;18.608;2023-06-04T03:44:52;12.60;99.90
11925;DHT22;6022;48.768;18.608;2023-06-04T03:47:27;12.70;99.90
11925;DHT22;6022;48.768;18.608;2023-06-04T03:49:54;12.80;99.90
11925;DHT22;6022;48.768;18.608;2023-06-04T03:52:22;13.10;99.90
11925;DHT22;6022;48.768;18.608;2023-06-04T03:54:49;13.20;99.90
11925;DHT22;6022;48.768;18.608;2023-06-04T03:57:21;13.00;99.90
11925;DHT22;6022;48.768;18.608;2023-06-04T03:59:48;13.60;99.90
11925;DHT22;6022;48.768;18.608;2023-06-04T04:02:20;13.20;99.90
11925;DHT22;6022;48.768;18.608;2023-06-04T04:04:50;13.10;99.90
11925;DHT22;6022;48.768;18.608;2023-06-04T04:07:26;13.20;99.90
11925;DHT22;6022;48.768;18.608;2023-06-04T04:09:56;13.10;99.90
11925;DHT22;6022;48.768;18.608;2023-06-04T04:12:39;13.20;99.90
11925;DHT22;6022;48.768;18.608;2023-06-04T04:15:08;13.10;99.90
11925;DHT22;6022;48.768;18.608;2023-06-04T04:17:35;13.30;99.90
11925;DHT22;6022;48.768;18.608;2023-06-04T04:20:06;13.10;99.90
11925;DHT22;6022;48.768;18.608;2023-06-04T04:22:33;13.10;99.90
11925;DHT22;6022;48.768;18.608;2023-06-04T04:25:01;13.20;99.90
11925;DHT22;6022;48.768;18.608;2023-06-04T04:27:28;13.10;99.90
11925;DHT22;6022;48.768;18.608;2023-06-04T04:29:57;13.20;99.90
11925;DHT22;6022;48.768;18.608;2023-06-04T04:32:27;13.10;99.90
11925;DHT22;6022;48.768;18.608;2023-06-04T04:34:54;13.20;99.90
11925;DHT22;6022;48.768;18.608;2023-06-04T04:37:22;13.20;99.90
11925;DHT22;6022;48.768;18.608;2023-06-04T04:39:51;13.50;99.90
11925;DHT22;6022;48.768;18.608;2023-06-04T04:42:19;13.70;99.90
11925;DHT22;6022;48.768;18.608;2023-06-04T04:44:47;13.80;99.90
11925;DHT22;6022;48.768;18.608;2023-06-04T04:47:16;14.70;99.90
11925;DHT22;6022;48.768;18.608;2023-06-04T04:49:43;15.10;99.90
11925;DHT22;6022;48.768;18.608;2023-06-04T04:52:13;15.10;99.90
11925;DHT22;6022;48.768;18.608;2023-06-04T04:54:40;15.50;99.90
11925;DHT22;6022;48.768;18.608;2023-06-04T04:57:10;15.70;99.90
11925;DHT22;6022;48.768;18.608;2023-06-04T04:59:40;15.30;99.90
11925;DHT22;6022;48.768;18.608;2023-06-04T05:02:07;15.30;99.90
11925;DHT22;6022;48.768;18.608;2023-06-04T05:04:34;15.30;99.90
11925;DHT22;6022;48.768;18.608;2023-06-04T05:07:02;15.10;99.90
11925;DHT22;6022;48.768;18.608;2023-06-04T05:09:30;15.80;99.90
11925;DHT22;6022;48.768;18.608;2023-06-04T05:11:57;15.80;99.90
11925;DHT22;6022;48.768;18.608;2023-06-04T05:14:25;16.00;99.90
11925;DHT22;6022;48.768;18.608;2023-06-04T05:16:54;16.40;99.90
11925;DHT22;6022;48.768;18.608;2023-06-04T05:19:24;16.80;99.90
11925;DHT22;6022;48.768;18.608;2023-06-04T05:21:52;17.30;99.90
11925;DHT22;6022;48.768;18.608;2023-06-04T05:24:19;18.30;99.90
11925;DHT22;6022;48.768;18.608;2023-06-04T05:26:47;20.40;99.90
11925;DHT22;6022;48.768;18.608;2023-06-04T05:29:15;21.00;96.50
11925;DHT22;6022;48.768;18.608;2023-06-04T05:31:42;20.00;94.80
11925;DHT22;6022;48.768;18.608;2023-06-04T05:34:11;19.80;95.20
11925;DHT22;6022;48.768;18.608;2023-06-04T05:36:43;19.30;97.00
11925;DHT22;6022;48.768;18.608;2023-06-04T05:39:10;20.60;95.80
11925;DHT22;6022;48.768;18.608;2023-06-04T05:41:37;21.60;92.80
11925;DHT22;6022;48.768;18.608;2023-06-04T05:44:05;22.80;87.80
11925;DHT22;6022;48.768;18.608;2023-06-04T05:46:32;23.70;82.00
11925;DHT22;6022;48.768;18.608;2023-06-04T05:48:59;23.50;79.40
11925;DHT22;6022;48.768;18.608;2023-06-04T05:51:26;23.50;80.20
11925;DHT22;6022;48.768;18.608;2023-06-04T05:53:54;24.00;75.40
11925;DHT22;6022;48.768;18.608;2023-06-04T05:56:22;23.20;74.70
11925;DHT22;6022;48.768;18.608;2023-06-04T05:58:53;23.50;75.30
11925;DHT22;6022;48.768;18.608;2023-06-04T06:01:20;23.70;73.20
11925;DHT22;6022;48.768;18.608;2023-06-04T06:03:48;24.00;72.20
11925;DHT22;6022;48.768;18.608;2023-06-04T06:06:16;24.30;72.90
11925;DHT22;6022;48.768;18.608;2023-06-04T06:08:55;25.00;68.80
11925;DHT22;6022;48.768;18.608;2023-06-04T06:11:22;25.10;68.30
11925;DHT22;6022;48.768;18.608;2023-06-04T06:13:49;25.10;66.00
11925;DHT22;6022;48.768;18.608;2023-06-04T06:16:17;24.50;65.20
11925;DHT22;6022;48.768;18.608;2023-06-04T06:18:45;24.10;66.00
11925;DHT22;6022;48.768;18.608;2023-06-04T06:21:12;24.40;67.30
11925;DHT22;6022;48.768;18.608;2023-06-04T06:23:41;24.10;65.40
11925;DHT22;6022;48.768;18.608;2023-06-04T06:26:10;24.10;66.50
11925;DHT22;6022;48.768;18.608;2023-06-04T06:28:39;24.90;65.10
11925;DHT22;6022;48.768;18.608;2023-06-04T06:31:06;24.80;65.30
11925;DHT22;6022;48.768;18.608;2023-06-04T06:33:34;24.30;64.50
11925;DHT22;6022;48.768;18.608;2023-06-04T06:36:01;24.80;63.10
11925;DHT22;6022;48.768;18.608;2023-06-04T06:38:29;25.70;63.20
11925;DHT22;6022;48.768;18.608;2023-06-04T06:40:58;25.80;64.00
11925;DHT22;6022;48.768;18.608;2023-06-04T06:43:25;26.90;61.10
11925;DHT22;6022;48.768;18.608;2023-06-04T06:45:53;27.30;59.10
11925;DHT22;6022;48.768;18.608;2023-06-04T06:48:20;28.20;54.20
11925;DHT22;6022;48.768;18.608;2023-06-04T06:50:50;28.80;52.20
11925;DHT22;6022;48.768;18.608;2023-06-04T06:53:17;28.60;51.90
11925;DHT22;6022;48.768;18.608;2023-06-04T06:55:45;27.10;51.10
11925;DHT22;6022;48.768;18.608;2023-06-04T06:58:12;26.40;53.30
11925;DHT22;6022;48.768;18.608;2023-06-04T07:00:39;27.00;52.10
11925;DHT22;6022;48.768;18.608;2023-06-04T07:03:07;27.80;50.40
11925;DHT22;6022;48.768;18.608;2023-06-04T07:05:35;26.70;51.50
11925;DHT22;6022;48.768;18.608;2023-06-04T07:08:02;26.70;52.10
11925;DHT22;6022;48.768;18.608;2023-06-04T07:10:30;26.10;51.90
11925;DHT22;6022;48.768;18.608;2023-06-04T07:12:57;26.40;52.00
11925;DHT22;6022;48.768;18.608;2023-06-04T07:15:24;26.50;52.80
11925;DHT22;6022;48.768;18.608;2023-06-04T07:17:52;26.50;51.60
11925;DHT22;6022;48.768;18.608;2023-06-04T07:20:19;28.00;50.70
11925;DHT22;6022;48.768;18.608;2023-06-04T07:22:46;28.20;51.00
11925;DHT22;6022;48.768;18.608;2023-06-04T07:25:14;28.30;48.80
11925;DHT22;6022;48.768;18.608;2023-06-04T07:27:41;27.40;49.10
11925;DHT22;6022;48.768;18.608;2023-06-04T07:30:09;27.90;48.20
11925;DHT22;6022;48.768;18.608;2023-06-04T07:32:37;28.00;49.00
11925;DHT22;6022;48.768;18.608;2023-06-04T07:35:06;29.50;51.80
11925;DHT22;6022;48.768;18.608;2023-06-04T07:37:34;29.50;46.20
11925;DHT22;6022;48.768;18.608;2023-06-04T07:40:01;29.20;46.80
11925;DHT22;6022;48.768;18.608;2023-06-04T07:42:29;28.10;47.00
11925;DHT22;6022;48.768;18.608;2023-06-04T07:44:56;28.50;53.50
11925;DHT22;6022;48.768;18.608;2023-06-04T07:47:24;29.10;49.50
11925;DHT22;6022;48.768;18.608;2023-06-04T07:49:52;28.50;47.20
11925;DHT22;6022;48.768;18.608;2023-06-04T07:52:29;28.70;48.20
11925;DHT22;6022;48.768;18.608;2023-06-04T07:54:57;28.70;48.80
11925;DHT22;6022;48.768;18.608;2023-06-04T07:57:24;28.70;48.80
11925;DHT22;6022;48.768;18.608;2023-06-04T07:59:52;29.30;48.50
11925;DHT22;6022;48.768;18.608;2023-06-04T08:02:19;29.90;43.20
11925;DHT22;6022;48.768;18.608;2023-06-04T08:04:47;30.90;46.00
11925;DHT22;6022;48.768;18.608;2023-06-04T08:07:14;30.80;38.50
11925;DHT22;6022;48.768;18.608;2023-06-04T08:09:42;31.40;40.40
11925;DHT22;6022;48.768;18.608;2023-06-04T08:12:11;31.40;40.60
11925;DHT22;6022;48.768;18.608;2023-06-04T08:14:41;32.20;40.50
11925;DHT22;6022;48.768;18.608;2023-06-04T08:17:08;32.70;38.90
11925;DHT22;6022;48.768;18.608;2023-06-04T08:19:38;32.40;35.90
11925;DHT22;6022;48.768;18.608;2023-06-04T08:22:05;32.70;37.70
11925;DHT22;6022;48.768;18.608;2023-06-04T08:24:33;32.00;35.90
11925;DHT22;6022;48.768;18.608;2023-06-04T08:27:00;31.10;38.40
11925;DHT22;6022;48.768;18.608;2023-06-04T08:29:28;30.60;36.90
11925;DHT22;6022;48.768;18.608;2023-06-04T08:31:55;30.00;38.40
11925;DHT22;6022;48.768;18.608;2023-06-04T08:34:23;28.10;38.70
11925;DHT22;6022;48.768;18.608;2023-06-04T08:36:50;27.30;41.50
11925;DHT22;6022;48.768;18.608;2023-06-04T08:39:17;27.90;43.60
11925;DHT22;6022;48.768;18.608;2023-06-04T08:41:49;27.90;43.30
11925;DHT22;6022;48.768;18.608;2023-06-04T08:44:19;28.80;42.70
11925;DHT22;6022;48.768;18.608;2023-06-04T08:46:51;29.10;39.80
11925;DHT22;6022;48.768;18.608;2023-06-04T08:49:22;29.10;41.30
11925;DHT22;6022;48.768;18.608;2023-06-04T08:51:52;28.70;40.90
11925;DHT22;6022;48.768;18.608;2023-06-04T08:54:20;28.70;41.70
11925;DHT22;6022;48.768;18.608;2023-06-04T08:56:48;28.90;43.40
11925;DHT22;6022;48.768;18.608;2023-06-04T08:59:19;29.20;42.10
11925;DHT22;6022;48.768;18.608;2023-06-04T09:01:55;29.50;40.60
11925;DHT22;6022;48.768;18.608;2023-06-04T09:04:24;29.50;40.80
11925;DHT22;6022;48.768;18.608;2023-06-04T09:07:02;29.90;44.40
11925;DHT22;6022;48.768;18.608;2023-06-04T09:09:40;29.70;40.40
11925;DHT22;6022;48.768;18.608;2023-06-04T09:12:42;29.60;41.40
11925;DHT22;6022;48.768;18.608;2023-06-04T09:15:11;29.70;39.90
11925;DHT22;6022;48.768;18.608;2023-06-04T09:17:38;30.30;38.80
11925;DHT22;6022;48.768;18.608;2023-06-04T09:20:18;30.20;39.90
11925;DHT22;6022;48.768;18.608;2023-06-04T09:22:49;29.20;38.50
11925;DHT22;6022;48.768;18.608;2023-06-04T09:25:25;28.50;39.30
11925;DHT22;6022;48.768;18.608;2023-06-04T09:27:54;27.80;41.90
11925;DHT22;6022;48.768;18.608;2023-06-04T09:30:32;27.20;42.50
11925;DHT22;6022;48.768;18.608;2023-06-04T09:33:09;27.10;42.90
11925;DHT22;6022;48.768;18.608;2023-06-04T09:35:37;26.60;46.70
11925;DHT22;6022;48.768;18.608;2023-06-04T09:38:05;26.30;51.50
11925;DHT22;6022;48.768;18.608;2023-06-04T09:40:38;26.30;52.10
11925;DHT22;6022;48.768;18.608;2023-06-04T09:43:09;26.20;48.10
11925;DHT22;6022;48.768;18.608;2023-06-04T09:45:38;26.00;48.60
11925;DHT22;6022;48.768;18.608;2023-06-04T09:48:05;25.50;47.40
11925;DHT22;6022;48.768;18.608;2023-06-04T09:50:36;25.40;49.10
11925;DHT22;6022;48.768;18.608;2023-06-04T09:53:18;25.70;51.20
11925;DHT22;6022;48.768;18.608;2023-06-04T09:55:59;25.70;51.00
11925;DHT22;6022;48.768;18.608;2023-06-04T09:58:29;25.90;50.80
11925;DHT22;6022;48.768;18.608;2023-06-04T10:00:59;25.80;50.90
11925;DHT22;6022;48.768;18.608;2023-06-04T10:03:33;26.00;49.30
11925;DHT22;6022;48.768;18.608;2023-06-04T10:06:04;26.20;50.20
11925;DHT22;6022;48.768;18.608;2023-06-04T10:08:33;25.90;47.40
11925;DHT22;6022;48.768;18.608;2023-06-04T10:11:04;25.90;47.30
11925;DHT22;6022;48.768;18.608;2023-06-04T10:13:50;25.50;48.50
11925;DHT22;6022;48.768;18.608;2023-06-04T10:16:23;25.30;47.80
11925;DHT22;6022;48.768;18.608;2023-06-04T10:19:00;25.60;47.70
11925;DHT22;6022;48.768;18.608;2023-06-04T10:21:29;25.70;48.60
11925;DHT22;6022;48.768;18.608;2023-06-04T10:24:02;25.50;48.80
11925;DHT22;6022;48.768;18.608;2023-06-04T10:26:30;25.50;49.60
11925;DHT22;6022;48.768;18.608;2023-06-04T10:29:01;25.40;50.10
11925;DHT22;6022;48.768;18.608;2023-06-04T10:31:34;25.90;51.70
11925;DHT22;6022;48.768;18.608;2023-06-04T10:34:22;25.10;50.10
11925;DHT22;6022;48.768;18.608;2023-06-04T10:38:09;25.50;51.40
11925;DHT22;6022;48.768;18.608;2023-06-04T10:40:46;25.60;50.30
11925;DHT22;6022;48.768;18.608;2023-06-04T10:48:17;25.50;50.30
11925;DHT22;6022;48.768;18.608;2023-06-04T10:55:47;25.00;51.00
11925;DHT22;6022;48.768;18.608;2023-06-04T10:59:25;24.30;52.50
11925;DHT22;6022;48.768;18.608;2023-06-04T11:02:10;24.00;51.30
11925;DHT22;6022;48.768;18.608;2023-06-04T11:05:04;23.80;52.20
11925;DHT22;6022;48.768;18.608;2023-06-04T11:07:56;23.90;53.10
11925;DHT22;6022;48.768;18.608;2023-06-04T11:10:43;24.00;53.80
11925;DHT22;6022;48.768;18.608;2023-06-04T11:13:15;23.80;54.50
11925;DHT22;6022;48.768;18.608;2023-06-04T11:19:50;23.70;54.30
11925;DHT22;6022;48.768;18.608;2023-06-04T11:22:56;23.50;53.90
11925;DHT22;6022;48.768;18.608;2023-06-04T11:25:37;23.40;54.40
11925;DHT22;6022;48.768;18.608;2023-06-04T11:28:05;23.30;53.50
11925;DHT22;6022;48.768;18.608;2023-06-04T11:31:02;23.30;53.50
11925;DHT22;6022;48.768;18.608;2023-06-04T11:33:54;23.30;54.00
11925;DHT22;6022;48.768;18.608;2023-06-04T11:36:23;23.40;55.30
11925;DHT22;6022;48.768;18.608;2023-06-04T11:39:02;23.10;54.80
11925;DHT22;6022;48.768;18.608;2023-06-04T11:41:34;23.20;54.70
11925;DHT22;6022;48.768;18.608;2023-06-04T11:44:04;23.10;55.20
11925;DHT22;6022;48.768;18.608;2023-06-04T11:46:40;23.10;56.20
11925;DHT22;6022;48.768;18.608;2023-06-04T11:49:17;23.00;56.50
11925;DHT22;6022;48.768;18.608;2023-06-04T11:51:51;23.10;56.10
11925;DHT22;6022;48.768;18.608;2023-06-04T11:54:21;23.00;55.30
11925;DHT22;6022;48.768;18.608;2023-06-04T11:56:50;22.90;55.00
11925;DHT22;6022;48.768;18.608;2023-06-04T11:59:18;22.80;55.60
11925;DHT22;6022;48.768;18.608;2023-06-04T12:01:47;22.80;55.70
11925;DHT22;6022;48.768;18.608;2023-06-04T12:04:17;22.60;57.80
11925;DHT22;6022;48.768;18.608;2023-06-04T12:06:56;22.70;57.20
11925;DHT22;6022;48.768;18.608;2023-06-04T12:09:27;22.50;56.80
11925;DHT22;6022;48.768;18.608;2023-06-04T12:12:02;22.50;57.20
11925;DHT22;6022;48.768;18.608;2023-06-04T12:14:34;22.70;57.90
11925;DHT22;6022;48.768;18.608;2023-06-04T12:17:08;22.70;58.70
11925;DHT22;6022;48.768;18.608;2023-06-04T12:19:56;23.20;59.10
11925;DHT22;6022;48.768;18.608;2023-06-04T12:22:30;23.20;57.90
11925;DHT22;6022;48.768;18.608;2023-06-04T12:25:02;23.30;60.60
11925;DHT22;6022;48.768;18.608;2023-06-04T12:28:02;23.40;60.00
11925;DHT22;6022;48.768;18.608;2023-06-04T12:30:50;23.30;57.20
11925;DHT22;6022;48.768;18.608;2023-06-04T12:33:34;23.20;58.70
11925;DHT22;6022;48.768;18.608;2023-06-04T12:36:27;23.10;56.30
11925;DHT22;6022;48.768;18.608;2023-06-04T12:39:07;23.20;58.80
11925;DHT22;6022;48.768;18.608;2023-06-04T12:41:53;23.30;59.70
11925;DHT22;6022;48.768;18.608;2023-06-04T12:44:33;23.00;57.60
11925;DHT22;6022;48.768;18.608;2023-06-04T12:47:31;22.90;56.80
11925;DHT22;6022;48.768;18.608;2023-06-04T12:50:13;22.70;58.50
11925;DHT22;6022;48.768;18.608;2023-06-04T12:52:48;22.60;60.00
11925;DHT22;6022;48.768;18.608;2023-06-04T12:55:17;22.20;61.00
11925;DHT22;6022;48.768;18.608;2023-06-04T12:57:45;22.20;63.00
11925;DHT22;6022;48.768;18.608;2023-06-04T13:00:18;21.70;63.50
11925;DHT22;6022;48.768;18.608;2023-06-04T13:02:57;21.60;65.50
11925;DHT22;6022;48.768;18.608;2023-06-04T13:05:24;21.40;68.00
11925;DHT22;6022;48.768;18.608;2023-06-04T13:07:51;21.30;74.60
11925;DHT22;6022;48.768;18.608;2023-06-04T13:10:22;21.20;84.10
11925;DHT22;6022;48.768;18.608;2023-06-04T13:13:07;20.50;85.60
11925;DHT22;6022;48.768;18.608;2023-06-04T13:15:39;21.10;97.10
11925;DHT22;6022;48.768;18.608;2023-06-04T13:18:45;21.00;97.60
11925;DHT22;6022;48.768;18.608;2023-06-04T13:21:15;20.80;99.90
11925;DHT22;6022;48.768;18.608;2023-06-04T13:23:47;20.70;99.90
11925;DHT22;6022;48.768;18.608;2023-06-04T13:26:17;20.70;99.90
11925;DHT22;6022;48.768;18.608;2023-06-04T13:28:52;20.60;99.90
11925;DHT22;6022;48.768;18.608;2023-06-04T13:31:22;20.50;99.90
11925;DHT22;6022;48.768;18.608;2023-06-04T13:34:10;20.40;99.90
11925;DHT22;6022;48.768;18.608;2023-06-04T13:36:59;20.40;99.90
11925;DHT22;6022;48.768;18.608;2023-06-04T13:40:00;20.30;99.90
11925;DHT22;6022;48.768;18.608;2023-06-04T13:42:31;20.50;99.90
11925;DHT22;6022;48.768;18.608;2023-06-04T13:45:08;20.20;99.90
11925;DHT22;6022;48.768;18.608;2023-06-04T13:47:36;20.10;99.90
11925;DHT22;6022;48.768;18.608;2023-06-04T13:50:06;19.70;99.90
11925;DHT22;6022;48.768;18.608;2023-06-04T13:52:37;19.80;99.90
11925;DHT22;6022;48.768;18.608;2023-06-04T13:55:29;20.00;99.90
11925;DHT22;6022;48.768;18.608;2023-06-04T13:58:04;19.70;99.90
11925;DHT22;6022;48.768;18.608;2023-06-04T14:00:55;20.00;99.90
11925;DHT22;6022;48.768;18.608;2023-06-04T14:03:45;19.70;99.90
11925;DHT22;6022;48.768;18.608;2023-06-04T14:06:18;19.80;99.90
11925;DHT22;6022;48.768;18.608;2023-06-04T14:09:10;19.80;99.90
11925;DHT22;6022;48.768;18.608;2023-06-04T14:11:41;20.00;99.90
11925;DHT22;6022;48.768;18.608;2023-06-04T14:14:14;19.80;99.90
11925;DHT22;6022;48.768;18.608;2023-06-04T14:16:48;19.90;99.90
11925;DHT22;6022;48.768;18.608;2023-06-04T14:19:16;20.00;99.90
11925;DHT22;6022;48.768;18.608;2023-06-04T14:21:50;19.80;99.90
11925;DHT22;6022;48.768;18.608;2023-06-04T14:24:18;20.10;99.90
11925;DHT22;6022;48.768;18.608;2023-06-04T14:26:46;20.40;99.90
11925;DHT22;6022;48.768;18.608;2023-06-04T14:29:13;20.40;99.90
11925;DHT22;6022;48.768;18.608;2023-06-04T14:31:41;20.30;99.90
11925;DHT22;6022;48.768;18.608;2023-06-04T14:34:09;20.60;99.90
11925;DHT22;6022;48.768;18.608;2023-06-04T14:36:39;20.00;99.90
11925;DHT22;6022;48.768;18.608;2023-06-04T14:39:07;20.30;99.90
11925;DHT22;6022;48.768;18.608;2023-06-04T14:41:34;20.20;99.90
11925;DHT22;6022;48.768;18.608;2023-06-04T14:44:02;20.30;99.90
11925;DHT22;6022;48.768;18.608;2023-06-04T14:46:39;20.20;99.90
11925;DHT22;6022;48.768;18.608;2023-06-04T14:49:09;20.20;99.90
11925;DHT22;6022;48.768;18.608;2023-06-04T14:51:36;20.10;99.90
11925;DHT22;6022;48.768;18.608;2023-06-04T14:54:04;20.10;99.90
11925;DHT22;6022;48.768;18.608;2023-06-04T14:56:31;19.90;99.90
11925;DHT22;6022;48.768;18.608;2023-06-04T14:58:59;20.30;99.90
11925;DHT22;6022;48.768;18.608;2023-06-04T15:01:28;19.90;99.90
11925;DHT22;6022;48.768;18.608;2023-06-04T15:03:55;20.00;99.90
11925;DHT22;6022;48.768;18.608;2023-06-04T15:06:22;19.90;99.90
11925;DHT22;6022;48.768;18.608;2023-06-04T15:08:54;19.90;99.90
11925;DHT22;6022;48.768;18.608;2023-06-04T15:11:24;20.10;99.90
11925;DHT22;6022;48.768;18.608;2023-06-04T15:13:54;19.90;99.90
11925;DHT22;6022;48.768;18.608;2023-06-04T15:16:22;20.20;99.90
11925;DHT22;6022;48.768;18.608;2023-06-04T15:18:50;19.80;99.90
11925;DHT22;6022;48.768;18.608;2023-06-04T15:21:17;20.10;99.90
11925;DHT22;6022;48.768;18.608;2023-06-04T15:23:45;20.00;99.90
11925;DHT22;6022;48.768;18.608;2023-06-04T15:26:16;19.90;99.90
11925;DHT22;6022;48.768;18.608;2023-06-04T15:28:44;20.00;99.90
11925;DHT22;6022;48.768;18.608;2023-06-04T15:31:12;19.90;99.90
11925;DHT22;6022;48.768;18.608;2023-06-04T15:33:39;20.10;99.90
11925;DHT22;6022;48.768;18.608;2023-06-04T15:36:06;20.20;99.90
11925;DHT22;6022;48.768;18.608;2023-06-04T15:38:33;20.60;99.90
11925;DHT22;6022;48.768;18.608;2023-06-04T15:41:03;20.50;99.90
11925;DHT22;6022;48.768;18.608;2023-06-04T15:43:30;20.70;99.90
11925;DHT22;6022;48.768;18.608;2023-06-04T15:45:57;20.40;99.90
11925;DHT22;6022;48.768;18.608;2023-06-04T15:48:26;20.30;99.90
11925;DHT22;6022;48.768;18.608;2023-06-04T15:50:57;20.20;99.90
11925;DHT22;6022;48.768;18.608;2023-06-04T15:53:24;20.00;99.90
11925;DHT22;6022;48.768;18.608;2023-06-04T15:55:51;20.20;99.90
11925;DHT22;6022;48.768;18.608;2023-06-04T15:58:18;20.40;99.90
11925;DHT22;6022;48.768;18.608;2023-06-04T16:00:47;20.10;99.90
11925;DHT22;6022;48.768;18.608;2023-06-04T16:03:14;20.10;99.90
11925;DHT22;6022;48.768;18.608;2023-06-04T16:05:42;20.10;99.90
11925;DHT22;6022;48.768;18.608;2023-06-04T16:08:09;19.90;99.90
11925;DHT22;6022;48.768;18.608;2023-06-04T16:10:37;19.90;99.90
11925;DHT22;6022;48.768;18.608;2023-06-04T16:13:04;19.90;99.90